SIN weather

Singapore Changi Airport
Singapore, South East, Singapore

Public forecast

Using degrees Celsius for public forecast. Weather courtesy of forecast.io.

METAR (pilot weather report)

Retrieved 2017/09/25 07:30 UTC (0 seconds ago):

WSSS 250730Z 19007KT 160V240 9999 FEW017CB FEW018TCU SCT270 31/24 Q1007 TEMPO FM0745 TL0825 4500 SHRA

TAF (pilot weather forecast)

Forecast is more than 12 hours old.

Retrieved 2017/09/24 00:12 UTC (1 day ago):

TAF WSSS 242300Z 2500/2606 18008KT 9999 FEW018CB SCT020 TEMPO 2501/2505 3000 TSRA FEW012CB BKN015